sensor_id;sensor_type;location;lat;lon;timestamp;P1;durP1;ratioP1;P2;durP2;ratioP2
75548;SDS011;64133;56.002;37.208;2023-08-21T00:00:49;8.95;;;1.40;;
75548;SDS011;64133;56.002;37.208;2023-08-21T00:05:53;2.70;;;1.25;;
75548;SDS011;64133;56.002;37.208;2023-08-21T00:10:58;2.60;;;1.25;;
75548;SDS011;64133;56.002;37.208;2023-08-21T00:16:03;2.40;;;1.17;;
75548;SDS011;64133;56.002;37.208;2023-08-21T00:21:08;3.75;;;1.77;;
75548;SDS011;64133;56.002;37.208;2023-08-21T00:26:12;4.00;;;1.12;;
75548;SDS011;64133;56.002;37.208;2023-08-21T00:31:17;2.42;;;1.30;;
75548;SDS011;64133;56.002;37.208;2023-08-21T00:36:22;3.17;;;1.87;;
75548;SDS011;64133;56.002;37.208;2023-08-21T00:41:26;2.80;;;1.90;;
75548;SDS011;64133;56.002;37.208;2023-08-21T00:46:31;3.62;;;1.62;;
75548;SDS011;64133;56.002;37.208;2023-08-21T00:51:36;3.25;;;1.50;;
75548;SDS011;64133;56.002;37.208;2023-08-21T00:56:40;4.08;;;1.80;;
75548;SDS011;64133;56.002;37.208;2023-08-21T01:01:45;2.40;;;1.30;;
75548;SDS011;64133;56.002;37.208;2023-08-21T01:06:50;5.95;;;1.87;;
75548;SDS011;64133;56.002;37.208;2023-08-21T01:11:58;7.42;;;1.98;;
75548;SDS011;64133;56.002;37.208;2023-08-21T01:17:00;3.37;;;1.65;;
75548;SDS011;64133;56.002;37.208;2023-08-21T01:22:04;2.80;;;1.40;;
75548;SDS011;64133;56.002;37.208;2023-08-21T01:27:09;3.35;;;2.15;;
75548;SDS011;64133;56.002;37.208;2023-08-21T01:32:16;3.10;;;1.50;;
75548;SDS011;64133;56.002;37.208;2023-08-21T01:37:18;4.60;;;1.42;;
75548;SDS011;64133;56.002;37.208;2023-08-21T01:42:23;4.15;;;1.77;;
75548;SDS011;64133;56.002;37.208;2023-08-21T01:47:28;3.77;;;1.77;;
75548;SDS011;64133;56.002;37.208;2023-08-21T01:52:32;4.37;;;1.92;;
75548;SDS011;64133;56.002;37.208;2023-08-21T01:57:37;7.05;;;2.33;;
75548;SDS011;64133;56.002;37.208;2023-08-21T02:02:42;2.72;;;1.45;;
75548;SDS011;64133;56.002;37.208;2023-08-21T02:07:47;3.17;;;1.77;;
75548;SDS011;64133;56.002;37.208;2023-08-21T02:12:51;4.28;;;1.98;;
75548;SDS011;64133;56.002;37.208;2023-08-21T02:17:56;3.02;;;1.45;;
75548;SDS011;64133;56.002;37.208;2023-08-21T02:23:00;6.12;;;2.02;;
75548;SDS011;64133;56.002;37.208;2023-08-21T02:28:05;5.03;;;1.75;;
75548;SDS011;64133;56.002;37.208;2023-08-21T02:33:10;3.47;;;2.15;;
75548;SDS011;64133;56.002;37.208;2023-08-21T02:38:15;3.52;;;1.25;;
75548;SDS011;64133;56.002;37.208;2023-08-21T02:43:19;5.12;;;1.82;;
75548;SDS011;64133;56.002;37.208;2023-08-21T02:48:24;3.50;;;1.15;;
75548;SDS011;64133;56.002;37.208;2023-08-21T02:53:29;5.40;;;1.80;;
75548;SDS011;64133;56.002;37.208;2023-08-21T02:58:33;3.90;;;1.10;;
75548;SDS011;64133;56.002;37.208;2023-08-21T03:03:38;2.65;;;1.42;;
75548;SDS011;64133;56.002;37.208;2023-08-21T03:08:43;2.83;;;1.40;;
75548;SDS011;64133;56.002;37.208;2023-08-21T03:13:47;2.67;;;1.15;;
75548;SDS011;64133;56.002;37.208;2023-08-21T03:18:55;2.17;;;1.02;;
75548;SDS011;64133;56.002;37.208;2023-08-21T03:24:00;3.05;;;1.40;;
75548;SDS011;64133;56.002;37.208;2023-08-21T03:29:04;2.27;;;0.88;;
75548;SDS011;64133;56.002;37.208;2023-08-21T03:34:09;1.85;;;0.93;;
75548;SDS011;64133;56.002;37.208;2023-08-21T03:39:14;4.28;;;1.52;;
75548;SDS011;64133;56.002;37.208;2023-08-21T03:44:18;2.33;;;1.05;;
75548;SDS011;64133;56.002;37.208;2023-08-21T03:49:23;3.30;;;1.35;;
75548;SDS011;64133;56.002;37.208;2023-08-21T03:54:28;2.52;;;1.22;;
75548;SDS011;64133;56.002;37.208;2023-08-21T03:59:32;3.33;;;1.30;;
75548;SDS011;64133;56.002;37.208;2023-08-21T04:04:37;5.33;;;1.20;;
75548;SDS011;64133;56.002;37.208;2023-08-21T04:09:42;1.98;;;1.12;;
75548;SDS011;64133;56.002;37.208;2023-08-21T04:14:46;2.83;;;1.00;;
75548;SDS011;64133;56.002;37.208;2023-08-21T04:19:51;1.35;;;0.68;;
75548;SDS011;64133;56.002;37.208;2023-08-21T04:24:56;2.47;;;1.00;;
75548;SDS011;64133;56.002;37.208;2023-08-21T04:30:01;2.12;;;0.95;;
75548;SDS011;64133;56.002;37.208;2023-08-21T04:35:07;1.85;;;0.88;;
75548;SDS011;64133;56.002;37.208;2023-08-21T04:40:12;2.42;;;1.02;;
75548;SDS011;64133;56.002;37.208;2023-08-21T04:45:17;2.27;;;0.90;;
75548;SDS011;64133;56.002;37.208;2023-08-21T04:50:22;8.55;;;1.42;;
75548;SDS011;64133;56.002;37.208;2023-08-21T04:55:27;1.47;;;0.65;;
75548;SDS011;64133;56.002;37.208;2023-08-21T05:00:31;2.62;;;1.10;;
75548;SDS011;64133;56.002;37.208;2023-08-21T05:05:36;1.70;;;1.00;;
75548;SDS011;64133;56.002;37.208;2023-08-21T05:10:41;3.52;;;0.78;;
75548;SDS011;64133;56.002;37.208;2023-08-21T05:15:49;1.55;;;0.60;;
75548;SDS011;64133;56.002;37.208;2023-08-21T05:20:55;1.95;;;1.00;;
75548;SDS011;64133;56.002;37.208;2023-08-21T05:26:00;2.42;;;1.02;;
75548;SDS011;64133;56.002;37.208;2023-08-21T05:31:05;1.50;;;0.60;;
75548;SDS011;64133;56.002;37.208;2023-08-21T05:36:09;2.70;;;1.52;;
75548;SDS011;64133;56.002;37.208;2023-08-21T05:41:14;2.15;;;1.00;;
75548;SDS011;64133;56.002;37.208;2023-08-21T05:46:19;3.72;;;1.35;;
75548;SDS011;64133;56.002;37.208;2023-08-21T05:51:23;2.65;;;1.15;;
75548;SDS011;64133;56.002;37.208;2023-08-21T05:56:28;2.15;;;1.05;;
75548;SDS011;64133;56.002;37.208;2023-08-21T06:01:33;5.35;;;1.12;;
75548;SDS011;64133;56.002;37.208;2023-08-21T06:06:37;2.72;;;0.95;;
75548;SDS011;64133;56.002;37.208;2023-08-21T06:11:42;2.33;;;0.85;;
75548;SDS011;64133;56.002;37.208;2023-08-21T06:16:47;1.70;;;0.70;;
75548;SDS011;64133;56.002;37.208;2023-08-21T06:21:51;2.42;;;0.60;;
75548;SDS011;64133;56.002;37.208;2023-08-21T06:26:56;1.67;;;0.78;;
75548;SDS011;64133;56.002;37.208;2023-08-21T06:32:01;1.62;;;0.82;;
75548;SDS011;64133;56.002;37.208;2023-08-21T06:37:06;1.52;;;0.70;;
75548;SDS011;64133;56.002;37.208;2023-08-21T06:42:10;1.75;;;0.62;;
75548;SDS011;64133;56.002;37.208;2023-08-21T06:47:15;2.42;;;1.22;;
75548;SDS011;64133;56.002;37.208;2023-08-21T06:52:20;3.42;;;1.07;;
75548;SDS011;64133;56.002;37.208;2023-08-21T06:57:25;2.87;;;1.42;;
75548;SDS011;64133;56.002;37.208;2023-08-21T07:02:29;2.15;;;0.80;;
75548;SDS011;64133;56.002;37.208;2023-08-21T07:07:34;2.10;;;1.35;;
75548;SDS011;64133;56.002;37.208;2023-08-21T07:12:39;3.12;;;0.90;;
75548;SDS011;64133;56.002;37.208;2023-08-21T07:17:43;1.27;;;0.60;;
75548;SDS011;64133;56.002;37.208;2023-08-21T07:22:48;5.62;;;1.22;;
75548;SDS011;64133;56.002;37.208;2023-08-21T07:27:53;1.60;;;0.50;;
75548;SDS011;64133;56.002;37.208;2023-08-21T07:32:58;2.02;;;0.93;;
75548;SDS011;64133;56.002;37.208;2023-08-21T07:38:03;2.10;;;0.88;;
75548;SDS011;64133;56.002;37.208;2023-08-21T07:43:07;1.45;;;0.68;;
75548;SDS011;64133;56.002;37.208;2023-08-21T07:48:12;2.52;;;0.65;;
75548;SDS011;64133;56.002;37.208;2023-08-21T07:53:17;1.70;;;0.80;;
75548;SDS011;64133;56.002;37.208;2023-08-21T07:58:21;2.95;;;0.80;;
75548;SDS011;64133;56.002;37.208;2023-08-21T08:03:26;1.72;;;0.60;;
75548;SDS011;64133;56.002;37.208;2023-08-21T08:08:31;2.37;;;1.00;;
75548;SDS011;64133;56.002;37.208;2023-08-21T08:13:35;2.05;;;0.80;;
75548;SDS011;64133;56.002;37.208;2023-08-21T08:18:40;2.27;;;0.88;;
75548;SDS011;64133;56.002;37.208;2023-08-21T08:23:45;1.95;;;0.85;;
75548;SDS011;64133;56.002;37.208;2023-08-21T08:28:50;4.05;;;1.12;;
75548;SDS011;64133;56.002;37.208;2023-08-21T08:33:54;4.10;;;1.20;;
75548;SDS011;64133;56.002;37.208;2023-08-21T08:38:59;2.27;;;1.10;;
75548;SDS011;64133;56.002;37.208;2023-08-21T08:44:04;1.45;;;0.55;;
75548;SDS011;64133;56.002;37.208;2023-08-21T08:49:09;2.92;;;1.10;;
75548;SDS011;64133;56.002;37.208;2023-08-21T08:54:14;1.70;;;0.70;;
75548;SDS011;64133;56.002;37.208;2023-08-21T08:59:19;2.10;;;0.70;;
75548;SDS011;64133;56.002;37.208;2023-08-21T09:04:23;1.60;;;0.70;;
75548;SDS011;64133;56.002;37.208;2023-08-21T09:09:28;1.52;;;0.82;;
75548;SDS011;64133;56.002;37.208;2023-08-21T09:14:43;2.12;;;0.70;;
75548;SDS011;64133;56.002;37.208;2023-08-21T09:19:48;2.05;;;0.80;;
75548;SDS011;64133;56.002;37.208;2023-08-21T09:25:02;1.57;;;0.72;;
75548;SDS011;64133;56.002;37.208;2023-08-21T09:30:09;1.50;;;0.70;;
75548;SDS011;64133;56.002;37.208;2023-08-21T09:35:34;1.87;;;0.72;;
75548;SDS011;64133;56.002;37.208;2023-08-21T09:40:41;1.98;;;0.90;;
75548;SDS011;64133;56.002;37.208;2023-08-21T09:45:46;1.50;;;0.85;;
75548;SDS011;64133;56.002;37.208;2023-08-21T09:50:51;2.55;;;0.80;;
75548;SDS011;64133;56.002;37.208;2023-08-21T09:55:56;3.47;;;0.95;;
75548;SDS011;64133;56.002;37.208;2023-08-21T10:01:01;2.42;;;1.00;;
75548;SDS011;64133;56.002;37.208;2023-08-21T10:06:06;2.65;;;1.32;;
75548;SDS011;64133;56.002;37.208;2023-08-21T10:11:10;2.50;;;1.00;;
75548;SDS011;64133;56.002;37.208;2023-08-21T10:16:15;3.85;;;0.85;;
75548;SDS011;64133;56.002;37.208;2023-08-21T10:26:38;3.08;;;0.90;;
75548;SDS011;64133;56.002;37.208;2023-08-21T10:31:43;1.82;;;0.80;;
75548;SDS011;64133;56.002;37.208;2023-08-21T10:42:13;3.10;;;1.27;;
75548;SDS011;64133;56.002;37.208;2023-08-21T10:47:18;1.95;;;1.17;;
75548;SDS011;64133;56.002;37.208;2023-08-21T10:52:23;2.70;;;0.82;;
75548;SDS011;64133;56.002;37.208;2023-08-21T10:57:28;2.67;;;1.30;;
75548;SDS011;64133;56.002;37.208;2023-08-21T11:02:32;2.40;;;1.07;;
75548;SDS011;64133;56.002;37.208;2023-08-21T11:17:40;2.27;;;0.70;;
75548;SDS011;64133;56.002;37.208;2023-08-21T11:22:45;2.25;;;0.93;;
75548;SDS011;64133;56.002;37.208;2023-08-21T11:27:50;2.62;;;0.90;;
75548;SDS011;64133;56.002;37.208;2023-08-21T11:33:07;2.37;;;0.78;;
75548;SDS011;64133;56.002;37.208;2023-08-21T11:38:16;1.62;;;0.70;;
75548;SDS011;64133;56.002;37.208;2023-08-21T11:43:21;4.03;;;1.10;;
75548;SDS011;64133;56.002;37.208;2023-08-21T11:48:27;3.95;;;0.85;;
75548;SDS011;64133;56.002;37.208;2023-08-21T11:53:33;2.27;;;0.88;;
75548;SDS011;64133;56.002;37.208;2023-08-21T11:58:38;1.22;;;0.40;;
75548;SDS011;64133;56.002;37.208;2023-08-21T12:03:43;2.12;;;0.78;;
75548;SDS011;64133;56.002;37.208;2023-08-21T12:08:51;2.30;;;0.80;;
75548;SDS011;64133;56.002;37.208;2023-08-21T12:13:56;1.30;;;0.65;;
75548;SDS011;64133;56.002;37.208;2023-08-21T12:19:01;3.33;;;1.57;;
75548;SDS011;64133;56.002;37.208;2023-08-21T12:24:06;2.05;;;0.70;;
75548;SDS011;64133;56.002;37.208;2023-08-21T12:29:10;3.25;;;1.22;;
75548;SDS011;64133;56.002;37.208;2023-08-21T12:34:15;1.50;;;0.60;;
75548;SDS011;64133;56.002;37.208;2023-08-21T12:39:20;1.20;;;0.60;;
75548;SDS011;64133;56.002;37.208;2023-08-21T12:44:25;3.35;;;0.95;;
75548;SDS011;64133;56.002;37.208;2023-08-21T12:49:29;1.77;;;0.80;;
75548;SDS011;64133;56.002;37.208;2023-08-21T12:54:34;2.35;;;0.82;;
75548;SDS011;64133;56.002;37.208;2023-08-21T12:59:39;1.95;;;0.80;;
75548;SDS011;64133;56.002;37.208;2023-08-21T13:04:43;1.72;;;0.62;;
75548;SDS011;64133;56.002;37.208;2023-08-21T13:09:48;1.35;;;0.78;;
75548;SDS011;64133;56.002;37.208;2023-08-21T13:14:53;3.00;;;0.98;;
75548;SDS011;64133;56.002;37.208;2023-08-21T13:19:57;2.77;;;0.75;;
75548;SDS011;64133;56.002;37.208;2023-08-21T13:25:02;2.85;;;0.70;;
75548;SDS011;64133;56.002;37.208;2023-08-21T13:30:08;2.40;;;0.60;;
75548;SDS011;64133;56.002;37.208;2023-08-21T13:35:14;4.03;;;1.12;;
75548;SDS011;64133;56.002;37.208;2023-08-21T13:40:19;3.05;;;0.80;;
75548;SDS011;64133;56.002;37.208;2023-08-21T13:45:24;7.65;;;0.90;;
75548;SDS011;64133;56.002;37.208;2023-08-21T13:50:29;2.58;;;0.62;;
75548;SDS011;64133;56.002;37.208;2023-08-21T13:55:33;3.20;;;0.85;;
75548;SDS011;64133;56.002;37.208;2023-08-21T14:00:38;2.02;;;0.90;;
75548;SDS011;64133;56.002;37.208;2023-08-21T14:05:43;1.50;;;0.70;;
75548;SDS011;64133;56.002;37.208;2023-08-21T14:10:47;2.20;;;0.82;;
75548;SDS011;64133;56.002;37.208;2023-08-21T14:15:52;3.42;;;1.10;;
75548;SDS011;64133;56.002;37.208;2023-08-21T14:20:57;4.22;;;0.80;;
75548;SDS011;64133;56.002;37.208;2023-08-21T14:26:02;2.62;;;0.93;;
75548;SDS011;64133;56.002;37.208;2023-08-21T14:31:06;5.80;;;1.17;;
75548;SDS011;64133;56.002;37.208;2023-08-21T14:36:11;1.67;;;0.70;;
75548;SDS011;64133;56.002;37.208;2023-08-21T14:41:16;1.42;;;0.60;;
75548;SDS011;64133;56.002;37.208;2023-08-21T14:46:20;2.45;;;0.98;;
75548;SDS011;64133;56.002;37.208;2023-08-21T14:51:25;3.12;;;1.07;;
75548;SDS011;64133;56.002;37.208;2023-08-21T14:56:30;4.12;;;1.70;;
75548;SDS011;64133;56.002;37.208;2023-08-21T15:01:34;4.08;;;1.50;;
75548;SDS011;64133;56.002;37.208;2023-08-21T15:06:39;2.65;;;1.20;;
75548;SDS011;64133;56.002;37.208;2023-08-21T15:11:44;2.95;;;2.00;;
75548;SDS011;64133;56.002;37.208;2023-08-21T15:16:48;4.12;;;1.25;;
75548;SDS011;64133;56.002;37.208;2023-08-21T15:21:53;6.22;;;1.30;;
75548;SDS011;64133;56.002;37.208;2023-08-21T15:26:58;3.02;;;1.20;;
75548;SDS011;64133;56.002;37.208;2023-08-21T15:32:02;4.00;;;1.25;;
75548;SDS011;64133;56.002;37.208;2023-08-21T15:37:07;2.65;;;1.40;;
75548;SDS011;64133;56.002;37.208;2023-08-21T15:42:12;4.45;;;1.40;;
75548;SDS011;64133;56.002;37.208;2023-08-21T15:47:17;3.90;;;1.32;;
75548;SDS011;64133;56.002;37.208;2023-08-21T15:52:21;4.72;;;1.67;;
75548;SDS011;64133;56.002;37.208;2023-08-21T15:57:26;5.62;;;1.50;;
75548;SDS011;64133;56.002;37.208;2023-08-21T16:02:31;8.40;;;2.77;;
75548;SDS011;64133;56.002;37.208;2023-08-21T16:07:36;3.02;;;1.55;;
75548;SDS011;64133;56.002;37.208;2023-08-21T16:12:40;6.42;;;2.12;;
75548;SDS011;64133;56.002;37.208;2023-08-21T16:17:45;5.72;;;2.20;;
75548;SDS011;64133;56.002;37.208;2023-08-21T16:22:49;6.05;;;3.52;;
75548;SDS011;64133;56.002;37.208;2023-08-21T16:27:54;7.25;;;3.52;;
75548;SDS011;64133;56.002;37.208;2023-08-21T16:33:00;6.80;;;3.22;;
75548;SDS011;64133;56.002;37.208;2023-08-21T16:38:05;6.10;;;2.95;;
75548;SDS011;64133;56.002;37.208;2023-08-21T16:43:09;5.00;;;2.10;;
75548;SDS011;64133;56.002;37.208;2023-08-21T16:48:14;8.23;;;2.80;;
75548;SDS011;64133;56.002;37.208;2023-08-21T16:53:19;8.50;;;3.40;;
75548;SDS011;64133;56.002;37.208;2023-08-21T16:58:23;6.12;;;3.08;;
75548;SDS011;64133;56.002;37.208;2023-08-21T17:03:28;5.80;;;2.40;;
75548;SDS011;64133;56.002;37.208;2023-08-21T17:08:33;6.25;;;2.45;;
75548;SDS011;64133;56.002;37.208;2023-08-21T17:13:37;4.42;;;1.82;;
75548;SDS011;64133;56.002;37.208;2023-08-21T17:18:42;6.37;;;2.33;;
75548;SDS011;64133;56.002;37.208;2023-08-21T17:23:47;8.43;;;3.33;;
75548;SDS011;64133;56.002;37.208;2023-08-21T17:28:52;4.53;;;2.00;;
75548;SDS011;64133;56.002;37.208;2023-08-21T17:33:56;6.22;;;2.85;;
75548;SDS011;64133;56.002;37.208;2023-08-21T17:39:01;7.10;;;2.33;;
75548;SDS011;64133;56.002;37.208;2023-08-21T17:44:07;7.03;;;2.30;;
75548;SDS011;64133;56.002;37.208;2023-08-21T17:49:14;6.85;;;2.83;;
75548;SDS011;64133;56.002;37.208;2023-08-21T17:54:18;9.70;;;4.30;;
75548;SDS011;64133;56.002;37.208;2023-08-21T17:59:23;5.62;;;2.98;;
75548;SDS011;64133;56.002;37.208;2023-08-21T18:04:28;4.00;;;1.85;;
75548;SDS011;64133;56.002;37.208;2023-08-21T18:09:33;8.03;;;2.90;;
75548;SDS011;64133;56.002;37.208;2023-08-21T18:14:38;8.53;;;4.55;;
75548;SDS011;64133;56.002;37.208;2023-08-21T18:19:43;5.37;;;2.72;;
75548;SDS011;64133;56.002;37.208;2023-08-21T18:24:48;4.72;;;2.47;;
75548;SDS011;64133;56.002;37.208;2023-08-21T18:29:52;6.60;;;2.27;;
75548;SDS011;64133;56.002;37.208;2023-08-21T18:34:57;4.22;;;1.92;;
75548;SDS011;64133;56.002;37.208;2023-08-21T18:40:02;5.70;;;2.80;;
75548;SDS011;64133;56.002;37.208;2023-08-21T18:45:08;5.47;;;2.75;;
75548;SDS011;64133;56.002;37.208;2023-08-21T18:50:13;8.83;;;2.45;;
75548;SDS011;64133;56.002;37.208;2023-08-21T18:55:18;10.32;;;2.98;;
75548;SDS011;64133;56.002;37.208;2023-08-21T19:00:23;5.87;;;3.55;;
75548;SDS011;64133;56.002;37.208;2023-08-21T19:05:27;5.35;;;2.92;;
75548;SDS011;64133;56.002;37.208;2023-08-21T19:10:32;7.70;;;2.85;;
75548;SDS011;64133;56.002;37.208;2023-08-21T19:15:37;5.78;;;2.92;;
75548;SDS011;64133;56.002;37.208;2023-08-21T19:20:41;4.28;;;2.52;;
75548;SDS011;64133;56.002;37.208;2023-08-21T19:25:46;7.00;;;2.98;;
75548;SDS011;64133;56.002;37.208;2023-08-21T19:30:51;5.62;;;2.50;;
75548;SDS011;64133;56.002;37.208;2023-08-21T19:35:55;8.23;;;2.87;;
75548;SDS011;64133;56.002;37.208;2023-08-21T19:41:00;7.35;;;2.40;;
75548;SDS011;64133;56.002;37.208;2023-08-21T19:46:05;6.78;;;2.92;;
75548;SDS011;64133;56.002;37.208;2023-08-21T19:51:09;8.30;;;3.22;;
75548;SDS011;64133;56.002;37.208;2023-08-21T19:56:14;7.03;;;3.30;;
75548;SDS011;64133;56.002;37.208;2023-08-21T20:01:37;9.50;;;3.10;;
75548;SDS011;64133;56.002;37.208;2023-08-21T20:06:41;7.30;;;3.25;;
75548;SDS011;64133;56.002;37.208;2023-08-21T20:11:46;10.50;;;3.50;;
75548;SDS011;64133;56.002;37.208;2023-08-21T20:16:51;12.18;;;2.85;;
75548;SDS011;64133;56.002;37.208;2023-08-21T20:21:55;9.48;;;3.00;;
75548;SDS011;64133;56.002;37.208;2023-08-21T20:27:00;7.22;;;2.80;;
75548;SDS011;64133;56.002;37.208;2023-08-21T20:32:05;5.80;;;2.72;;
75548;SDS011;64133;56.002;37.208;2023-08-21T20:37:10;8.73;;;3.08;;
75548;SDS011;64133;56.002;37.208;2023-08-21T20:42:15;6.22;;;2.92;;
75548;SDS011;64133;56.002;37.208;2023-08-21T20:47:20;9.33;;;2.90;;
75548;SDS011;64133;56.002;37.208;2023-08-21T20:52:24;7.40;;;2.50;;
75548;SDS011;64133;56.002;37.208;2023-08-21T20:57:33;7.30;;;2.83;;
75548;SDS011;64133;56.002;37.208;2023-08-21T21:02:38;7.65;;;2.77;;
75548;SDS011;64133;56.002;37.208;2023-08-21T21:07:43;7.58;;;2.95;;
75548;SDS011;64133;56.002;37.208;2023-08-21T21:12:47;9.53;;;3.30;;
75548;SDS011;64133;56.002;37.208;2023-08-21T21:52:27;13.38;;;3.52;;
75548;SDS011;64133;56.002;37.208;2023-08-21T21:57:32;6.00;;;2.87;;
75548;SDS011;64133;56.002;37.208;2023-08-21T22:02:37;5.40;;;2.62;;
75548;SDS011;64133;56.002;37.208;2023-08-21T22:07:42;5.25;;;2.70;;
75548;SDS011;64133;56.002;37.208;2023-08-21T22:12:46;7.87;;;3.30;;
75548;SDS011;64133;56.002;37.208;2023-08-21T22:17:51;7.00;;;2.67;;
75548;SDS011;64133;56.002;37.208;2023-08-21T22:22:56;5.85;;;2.70;;
75548;SDS011;64133;56.002;37.208;2023-08-21T22:28:00;8.63;;;2.70;;
75548;SDS011;64133;56.002;37.208;2023-08-21T22:33:05;5.08;;;2.77;;
75548;SDS011;64133;56.002;37.208;2023-08-21T22:38:10;7.65;;;2.42;;
75548;SDS011;64133;56.002;37.208;2023-08-21T22:43:14;10.45;;;3.33;;
75548;SDS011;64133;56.002;37.208;2023-08-21T22:48:19;5.42;;;2.90;;
75548;SDS011;64133;56.002;37.208;2023-08-21T22:53:24;10.65;;;3.12;;
75548;SDS011;64133;56.002;37.208;2023-08-21T22:58:28;5.62;;;3.22;;
75548;SDS011;64133;56.002;37.208;2023-08-21T23:03:33;6.62;;;3.12;;
75548;SDS011;64133;56.002;37.208;2023-08-21T23:08:38;9.38;;;3.02;;
75548;SDS011;64133;56.002;37.208;2023-08-21T23:13:42;7.58;;;3.10;;
75548;SDS011;64133;56.002;37.208;2023-08-21T23:18:47;5.75;;;2.58;;
75548;SDS011;64133;56.002;37.208;2023-08-21T23:23:52;7.25;;;2.95;;
75548;SDS011;64133;56.002;37.208;2023-08-21T23:28:56;6.40;;;2.92;;
75548;SDS011;64133;56.002;37.208;2023-08-21T23:34:02;5.58;;;3.00;;
75548;SDS011;64133;56.002;37.208;2023-08-21T23:39:06;5.05;;;2.83;;
75548;SDS011;64133;56.002;37.208;2023-08-21T23:44:11;9.13;;;2.92;;
75548;SDS011;64133;56.002;37.208;2023-08-21T23:49:16;7.87;;;3.92;;
75548;SDS011;64133;56.002;37.208;2023-08-21T23:54:20;7.30;;;3.33;;
75548;SDS011;64133;56.002;37.208;2023-08-21T23:59:25;5.37;;;2.60;;
